sensor_id;sensor_type;location;lat;lon;timestamp;P1;durP1;ratioP1;P2;durP2;ratioP2
15708;SDS011;7954;51.914;8.420;2023-05-28T00:00:36;4.27;;;3.20;;
15708;SDS011;7954;51.914;8.420;2023-05-28T00:03:03;3.87;;;3.20;;
15708;SDS011;7954;51.914;8.420;2023-05-28T00:05:33;5.80;;;3.13;;
15708;SDS011;7954;51.914;8.420;2023-05-28T00:08:00;6.07;;;3.33;;
15708;SDS011;7954;51.914;8.420;2023-05-28T00:10:28;4.10;;;3.53;;
15708;SDS011;7954;51.914;8.420;2023-05-28T00:12:56;5.60;;;3.40;;
15708;SDS011;7954;51.914;8.420;2023-05-28T00:15:24;6.77;;;3.77;;
15708;SDS011;7954;51.914;8.420;2023-05-28T00:17:53;4.77;;;3.60;;
15708;SDS011;7954;51.914;8.420;2023-05-28T00:20:22;5.83;;;3.20;;
15708;SDS011;7954;51.914;8.420;2023-05-28T00:22:53;4.87;;;3.27;;
15708;SDS011;7954;51.914;8.420;2023-05-28T00:25:21;6.13;;;3.43;;
15708;SDS011;7954;51.914;8.420;2023-05-28T00:27:49;3.87;;;3.10;;
15708;SDS011;7954;51.914;8.420;2023-05-28T00:30:16;4.00;;;3.60;;
15708;SDS011;7954;51.914;8.420;2023-05-28T00:32:44;5.03;;;3.33;;
15708;SDS011;7954;51.914;8.420;2023-05-28T00:35:12;4.77;;;3.47;;
15708;SDS011;7954;51.914;8.420;2023-05-28T00:37:40;6.40;;;3.40;;
15708;SDS011;7954;51.914;8.420;2023-05-28T00:40:11;6.77;;;3.20;;
15708;SDS011;7954;51.914;8.420;2023-05-28T00:42:42;4.57;;;3.20;;
15708;SDS011;7954;51.914;8.420;2023-05-28T00:45:10;4.97;;;3.43;;
15708;SDS011;7954;51.914;8.420;2023-05-28T00:47:39;4.23;;;3.30;;
15708;SDS011;7954;51.914;8.420;2023-05-28T00:50:07;4.33;;;2.90;;
15708;SDS011;7954;51.914;8.420;2023-05-28T00:52:36;4.67;;;3.40;;
15708;SDS011;7954;51.914;8.420;2023-05-28T00:55:06;4.03;;;3.27;;
15708;SDS011;7954;51.914;8.420;2023-05-28T00:57:40;4.53;;;3.53;;
15708;SDS011;7954;51.914;8.420;2023-05-28T01:00:09;4.90;;;3.30;;
15708;SDS011;7954;51.914;8.420;2023-05-28T01:02:40;6.33;;;3.57;;
15708;SDS011;7954;51.914;8.420;2023-05-28T01:05:09;4.23;;;3.70;;
15708;SDS011;7954;51.914;8.420;2023-05-28T01:07:37;5.03;;;3.53;;
15708;SDS011;7954;51.914;8.420;2023-05-28T01:10:06;5.60;;;3.33;;
15708;SDS011;7954;51.914;8.420;2023-05-28T01:12:35;3.97;;;3.13;;
15708;SDS011;7954;51.914;8.420;2023-05-28T01:15:06;5.73;;;3.43;;
15708;SDS011;7954;51.914;8.420;2023-05-28T01:17:34;4.50;;;3.17;;
15708;SDS011;7954;51.914;8.420;2023-05-28T01:20:05;11.23;;;3.67;;
15708;SDS011;7954;51.914;8.420;2023-05-28T01:22:38;6.13;;;3.90;;
15708;SDS011;7954;51.914;8.420;2023-05-28T01:25:08;4.30;;;3.27;;
15708;SDS011;7954;51.914;8.420;2023-05-28T01:27:42;5.47;;;3.90;;
15708;SDS011;7954;51.914;8.420;2023-05-28T01:30:10;4.63;;;3.53;;
15708;SDS011;7954;51.914;8.420;2023-05-28T01:32:39;6.93;;;3.70;;
15708;SDS011;7954;51.914;8.420;2023-05-28T01:35:07;5.20;;;3.60;;
15708;SDS011;7954;51.914;8.420;2023-05-28T01:37:37;4.27;;;3.07;;
15708;SDS011;7954;51.914;8.420;2023-05-28T01:40:09;6.03;;;3.60;;
15708;SDS011;7954;51.914;8.420;2023-05-28T01:42:38;4.90;;;3.33;;
15708;SDS011;7954;51.914;8.420;2023-05-28T01:45:08;5.33;;;3.30;;
15708;SDS011;7954;51.914;8.420;2023-05-28T01:47:37;4.00;;;3.10;;
15708;SDS011;7954;51.914;8.420;2023-05-28T01:50:06;4.40;;;3.27;;
15708;SDS011;7954;51.914;8.420;2023-05-28T01:52:35;6.07;;;3.43;;
15708;SDS011;7954;51.914;8.420;2023-05-28T01:55:03;5.17;;;3.70;;
15708;SDS011;7954;51.914;8.420;2023-05-28T01:57:36;5.30;;;3.57;;
15708;SDS011;7954;51.914;8.420;2023-05-28T02:00:05;4.33;;;3.20;;
15708;SDS011;7954;51.914;8.420;2023-05-28T02:02:34;4.00;;;3.37;;
15708;SDS011;7954;51.914;8.420;2023-05-28T02:05:02;4.70;;;3.57;;
15708;SDS011;7954;51.914;8.420;2023-05-28T02:07:32;5.43;;;3.53;;
15708;SDS011;7954;51.914;8.420;2023-05-28T02:10:00;6.03;;;3.57;;
15708;SDS011;7954;51.914;8.420;2023-05-28T02:12:28;5.50;;;3.47;;
15708;SDS011;7954;51.914;8.420;2023-05-28T02:14:57;4.57;;;3.30;;
15708;SDS011;7954;51.914;8.420;2023-05-28T02:17:25;4.80;;;3.40;;
15708;SDS011;7954;51.914;8.420;2023-05-28T02:19:53;3.73;;;3.27;;
15708;SDS011;7954;51.914;8.420;2023-05-28T02:22:22;5.77;;;3.67;;
15708;SDS011;7954;51.914;8.420;2023-05-28T02:24:49;3.53;;;2.80;;
15708;SDS011;7954;51.914;8.420;2023-05-28T02:27:17;5.80;;;3.60;;
15708;SDS011;7954;51.914;8.420;2023-05-28T02:29:46;3.57;;;3.27;;
15708;SDS011;7954;51.914;8.420;2023-05-28T02:32:15;4.03;;;3.47;;
15708;SDS011;7954;51.914;8.420;2023-05-28T02:34:43;4.17;;;3.40;;
15708;SDS011;7954;51.914;8.420;2023-05-28T02:37:11;5.23;;;3.60;;
15708;SDS011;7954;51.914;8.420;2023-05-28T02:39:39;3.77;;;3.20;;
15708;SDS011;7954;51.914;8.420;2023-05-28T02:42:08;5.47;;;3.70;;
15708;SDS011;7954;51.914;8.420;2023-05-28T02:44:36;4.60;;;3.30;;
15708;SDS011;7954;51.914;8.420;2023-05-28T02:47:04;4.33;;;3.43;;
15708;SDS011;7954;51.914;8.420;2023-05-28T02:49:34;4.17;;;2.97;;
15708;SDS011;7954;51.914;8.420;2023-05-28T02:52:02;3.93;;;3.20;;
15708;SDS011;7954;51.914;8.420;2023-05-28T02:54:30;4.40;;;3.40;;
15708;SDS011;7954;51.914;8.420;2023-05-28T02:56:58;4.40;;;3.40;;
15708;SDS011;7954;51.914;8.420;2023-05-28T02:59:25;4.03;;;3.27;;
15708;SDS011;7954;51.914;8.420;2023-05-28T03:01:54;4.70;;;3.27;;
15708;SDS011;7954;51.914;8.420;2023-05-28T03:04:22;4.33;;;3.30;;
15708;SDS011;7954;51.914;8.420;2023-05-28T03:06:51;4.07;;;3.40;;
15708;SDS011;7954;51.914;8.420;2023-05-28T03:09:20;4.40;;;3.50;;
15708;SDS011;7954;51.914;8.420;2023-05-28T03:11:48;4.13;;;3.60;;
15708;SDS011;7954;51.914;8.420;2023-05-28T03:14:16;3.77;;;3.47;;
15708;SDS011;7954;51.914;8.420;2023-05-28T03:16:44;6.47;;;3.97;;
15708;SDS011;7954;51.914;8.420;2023-05-28T03:19:12;4.03;;;3.23;;
15708;SDS011;7954;51.914;8.420;2023-05-28T03:21:40;4.07;;;3.20;;
15708;SDS011;7954;51.914;8.420;2023-05-28T03:24:09;3.77;;;3.20;;
15708;SDS011;7954;51.914;8.420;2023-05-28T03:26:37;4.17;;;3.73;;
15708;SDS011;7954;51.914;8.420;2023-05-28T03:29:05;3.43;;;3.13;;
15708;SDS011;7954;51.914;8.420;2023-05-28T03:31:41;3.87;;;3.40;;
15708;SDS011;7954;51.914;8.420;2023-05-28T03:34:11;7.23;;;3.80;;
15708;SDS011;7954;51.914;8.420;2023-05-28T03:36:39;3.97;;;3.57;;
15708;SDS011;7954;51.914;8.420;2023-05-28T03:39:07;4.17;;;3.43;;
15708;SDS011;7954;51.914;8.420;2023-05-28T03:41:36;4.30;;;3.80;;
15708;SDS011;7954;51.914;8.420;2023-05-28T03:44:04;5.10;;;3.60;;
15708;SDS011;7954;51.914;8.420;2023-05-28T03:46:33;4.20;;;3.80;;
15708;SDS011;7954;51.914;8.420;2023-05-28T03:49:01;5.20;;;3.90;;
15708;SDS011;7954;51.914;8.420;2023-05-28T03:51:28;5.63;;;3.83;;
15708;SDS011;7954;51.914;8.420;2023-05-28T03:53:58;6.77;;;3.93;;
15708;SDS011;7954;51.914;8.420;2023-05-28T03:56:27;4.73;;;3.57;;
15708;SDS011;7954;51.914;8.420;2023-05-28T03:58:57;3.93;;;3.30;;
15708;SDS011;7954;51.914;8.420;2023-05-28T04:01:25;4.93;;;3.97;;
15708;SDS011;7954;51.914;8.420;2023-05-28T04:03:53;4.10;;;3.17;;
15708;SDS011;7954;51.914;8.420;2023-05-28T04:06:22;5.00;;;3.63;;
15708;SDS011;7954;51.914;8.420;2023-05-28T04:08:51;4.77;;;3.50;;
15708;SDS011;7954;51.914;8.420;2023-05-28T04:11:20;4.10;;;3.50;;
15708;SDS011;7954;51.914;8.420;2023-05-28T04:13:51;3.37;;;3.07;;
15708;SDS011;7954;51.914;8.420;2023-05-28T04:16:21;6.00;;;3.50;;
15708;SDS011;7954;51.914;8.420;2023-05-28T04:18:49;3.83;;;3.40;;
15708;SDS011;7954;51.914;8.420;2023-05-28T04:21:18;7.73;;;3.20;;
15708;SDS011;7954;51.914;8.420;2023-05-28T04:23:45;4.67;;;3.53;;
15708;SDS011;7954;51.914;8.420;2023-05-28T04:26:14;7.47;;;4.13;;
15708;SDS011;7954;51.914;8.420;2023-05-28T04:28:42;3.27;;;2.97;;
15708;SDS011;7954;51.914;8.420;2023-05-28T04:31:11;5.67;;;3.17;;
15708;SDS011;7954;51.914;8.420;2023-05-28T04:33:40;4.90;;;3.87;;
15708;SDS011;7954;51.914;8.420;2023-05-28T04:36:08;6.10;;;3.97;;
15708;SDS011;7954;51.914;8.420;2023-05-28T04:38:39;3.90;;;3.50;;
15708;SDS011;7954;51.914;8.420;2023-05-28T04:41:08;4.60;;;3.27;;
15708;SDS011;7954;51.914;8.420;2023-05-28T04:43:40;5.27;;;3.57;;
15708;SDS011;7954;51.914;8.420;2023-05-28T04:46:08;5.30;;;3.37;;
15708;SDS011;7954;51.914;8.420;2023-05-28T04:48:36;4.73;;;3.17;;
15708;SDS011;7954;51.914;8.420;2023-05-28T04:51:06;5.33;;;4.13;;
15708;SDS011;7954;51.914;8.420;2023-05-28T04:53:34;5.13;;;4.33;;
15708;SDS011;7954;51.914;8.420;2023-05-28T04:56:02;4.13;;;3.67;;
15708;SDS011;7954;51.914;8.420;2023-05-28T04:58:30;5.73;;;4.37;;
15708;SDS011;7954;51.914;8.420;2023-05-28T05:00:58;4.60;;;3.90;;
15708;SDS011;7954;51.914;8.420;2023-05-28T05:03:26;4.23;;;3.33;;
15708;SDS011;7954;51.914;8.420;2023-05-28T05:05:54;4.97;;;3.93;;
15708;SDS011;7954;51.914;8.420;2023-05-28T05:08:23;5.40;;;4.27;;
15708;SDS011;7954;51.914;8.420;2023-05-28T05:10:52;7.23;;;4.73;;
15708;SDS011;7954;51.914;8.420;2023-05-28T05:13:20;4.73;;;3.90;;
15708;SDS011;7954;51.914;8.420;2023-05-28T05:15:47;5.70;;;4.27;;
15708;SDS011;7954;51.914;8.420;2023-05-28T05:18:15;6.10;;;4.60;;
15708;SDS011;7954;51.914;8.420;2023-05-28T05:20:43;7.13;;;4.80;;
15708;SDS011;7954;51.914;8.420;2023-05-28T05:23:13;6.97;;;4.27;;
15708;SDS011;7954;51.914;8.420;2023-05-28T05:25:43;7.77;;;4.77;;
15708;SDS011;7954;51.914;8.420;2023-05-28T05:28:11;5.73;;;4.50;;
15708;SDS011;7954;51.914;8.420;2023-05-28T05:30:40;5.07;;;4.50;;
15708;SDS011;7954;51.914;8.420;2023-05-28T05:33:08;5.27;;;4.37;;
15708;SDS011;7954;51.914;8.420;2023-05-28T05:35:36;4.87;;;3.80;;
15708;SDS011;7954;51.914;8.420;2023-05-28T05:38:04;4.70;;;3.67;;
15708;SDS011;7954;51.914;8.420;2023-05-28T05:40:32;6.30;;;3.70;;
15708;SDS011;7954;51.914;8.420;2023-05-28T05:43:01;6.63;;;3.80;;
15708;SDS011;7954;51.914;8.420;2023-05-28T05:45:29;4.73;;;3.50;;
15708;SDS011;7954;51.914;8.420;2023-05-28T05:47:57;4.47;;;3.60;;
15708;SDS011;7954;51.914;8.420;2023-05-28T05:50:26;4.77;;;3.53;;
15708;SDS011;7954;51.914;8.420;2023-05-28T05:52:54;4.43;;;3.63;;
15708;SDS011;7954;51.914;8.420;2023-05-28T05:55:22;6.03;;;3.67;;
15708;SDS011;7954;51.914;8.420;2023-05-28T05:57:50;4.60;;;3.47;;
15708;SDS011;7954;51.914;8.420;2023-05-28T06:00:19;6.40;;;3.50;;
15708;SDS011;7954;51.914;8.420;2023-05-28T06:02:47;5.93;;;2.97;;
15708;SDS011;7954;51.914;8.420;2023-05-28T06:05:16;6.27;;;3.50;;
15708;SDS011;7954;51.914;8.420;2023-05-28T06:07:44;4.83;;;3.30;;
15708;SDS011;7954;51.914;8.420;2023-05-28T06:10:13;5.50;;;3.27;;
15708;SDS011;7954;51.914;8.420;2023-05-28T06:12:40;4.53;;;3.00;;
15708;SDS011;7954;51.914;8.420;2023-05-28T06:15:09;4.60;;;3.00;;
15708;SDS011;7954;51.914;8.420;2023-05-28T06:17:39;4.20;;;3.10;;
15708;SDS011;7954;51.914;8.420;2023-05-28T06:20:11;4.30;;;2.67;;
15708;SDS011;7954;51.914;8.420;2023-05-28T06:22:40;4.30;;;3.27;;
15708;SDS011;7954;51.914;8.420;2023-05-28T06:25:08;6.87;;;3.13;;
15708;SDS011;7954;51.914;8.420;2023-05-28T06:27:36;4.73;;;2.97;;
15708;SDS011;7954;51.914;8.420;2023-05-28T06:30:04;3.90;;;2.83;;
15708;SDS011;7954;51.914;8.420;2023-05-28T06:32:32;4.33;;;3.10;;
15708;SDS011;7954;51.914;8.420;2023-05-28T06:35:02;4.93;;;2.70;;
15708;SDS011;7954;51.914;8.420;2023-05-28T06:37:31;7.57;;;3.20;;
15708;SDS011;7954;51.914;8.420;2023-05-28T06:40:00;4.17;;;2.73;;
15708;SDS011;7954;51.914;8.420;2023-05-28T06:42:32;3.63;;;2.70;;
15708;SDS011;7954;51.914;8.420;2023-05-28T06:45:00;5.43;;;2.70;;
15708;SDS011;7954;51.914;8.420;2023-05-28T06:47:27;5.17;;;3.50;;
15708;SDS011;7954;51.914;8.420;2023-05-28T06:49:55;4.17;;;3.00;;
15708;SDS011;7954;51.914;8.420;2023-05-28T06:52:24;4.80;;;3.27;;
15708;SDS011;7954;51.914;8.420;2023-05-28T06:54:53;6.03;;;3.13;;
15708;SDS011;7954;51.914;8.420;2023-05-28T06:57:23;4.17;;;2.73;;
15708;SDS011;7954;51.914;8.420;2023-05-28T06:59:51;4.47;;;2.70;;
15708;SDS011;7954;51.914;8.420;2023-05-28T07:02:23;3.50;;;2.70;;
15708;SDS011;7954;51.914;8.420;2023-05-28T07:04:52;3.47;;;2.87;;
15708;SDS011;7954;51.914;8.420;2023-05-28T07:07:20;4.97;;;2.50;;
15708;SDS011;7954;51.914;8.420;2023-05-28T07:09:50;2.90;;;2.17;;
15708;SDS011;7954;51.914;8.420;2023-05-28T07:12:18;2.70;;;2.33;;
15708;SDS011;7954;51.914;8.420;2023-05-28T07:14:45;5.60;;;2.63;;
15708;SDS011;7954;51.914;8.420;2023-05-28T07:17:15;3.13;;;2.00;;
15708;SDS011;7954;51.914;8.420;2023-05-28T07:19:44;2.83;;;2.23;;
15708;SDS011;7954;51.914;8.420;2023-05-28T07:22:12;2.73;;;2.27;;
15708;SDS011;7954;51.914;8.420;2023-05-28T07:24:40;3.77;;;2.60;;
15708;SDS011;7954;51.914;8.420;2023-05-28T07:27:09;3.63;;;2.23;;
15708;SDS011;7954;51.914;8.420;2023-05-28T07:29:39;3.80;;;2.00;;
15708;SDS011;7954;51.914;8.420;2023-05-28T07:32:07;3.33;;;2.60;;
15708;SDS011;7954;51.914;8.420;2023-05-28T07:34:34;3.87;;;2.30;;
15708;SDS011;7954;51.914;8.420;2023-05-28T07:37:03;3.77;;;2.73;;
15708;SDS011;7954;51.914;8.420;2023-05-28T07:39:31;3.30;;;2.20;;
15708;SDS011;7954;51.914;8.420;2023-05-28T07:41:59;2.73;;;2.30;;
15708;SDS011;7954;51.914;8.420;2023-05-28T07:44:29;3.50;;;2.37;;
15708;SDS011;7954;51.914;8.420;2023-05-28T07:46:57;3.93;;;2.53;;
15708;SDS011;7954;51.914;8.420;2023-05-28T07:49:25;3.17;;;2.67;;
15708;SDS011;7954;51.914;8.420;2023-05-28T07:51:53;3.80;;;2.30;;
15708;SDS011;7954;51.914;8.420;2023-05-28T07:54:21;3.23;;;2.00;;
15708;SDS011;7954;51.914;8.420;2023-05-28T07:56:49;3.37;;;2.33;;
15708;SDS011;7954;51.914;8.420;2023-05-28T07:59:17;3.23;;;2.10;;
15708;SDS011;7954;51.914;8.420;2023-05-28T08:01:49;3.33;;;2.20;;
15708;SDS011;7954;51.914;8.420;2023-05-28T08:04:17;3.03;;;2.30;;
15708;SDS011;7954;51.914;8.420;2023-05-28T08:06:45;3.07;;;1.90;;
15708;SDS011;7954;51.914;8.420;2023-05-28T08:09:13;2.43;;;1.87;;
15708;SDS011;7954;51.914;8.420;2023-05-28T08:11:43;3.73;;;2.67;;
15708;SDS011;7954;51.914;8.420;2023-05-28T08:14:11;3.57;;;2.20;;
15708;SDS011;7954;51.914;8.420;2023-05-28T08:16:39;3.00;;;2.10;;
15708;SDS011;7954;51.914;8.420;2023-05-28T08:19:09;3.63;;;2.17;;
15708;SDS011;7954;51.914;8.420;2023-05-28T08:21:37;3.03;;;2.33;;
15708;SDS011;7954;51.914;8.420;2023-05-28T08:24:05;2.83;;;2.40;;
15708;SDS011;7954;51.914;8.420;2023-05-28T08:26:33;4.20;;;2.60;;
15708;SDS011;7954;51.914;8.420;2023-05-28T08:29:01;3.50;;;2.37;;
15708;SDS011;7954;51.914;8.420;2023-05-28T08:31:31;2.67;;;2.13;;
15708;SDS011;7954;51.914;8.420;2023-05-28T08:33:59;2.93;;;2.50;;
15708;SDS011;7954;51.914;8.420;2023-05-28T08:36:29;2.77;;;2.33;;
15708;SDS011;7954;51.914;8.420;2023-05-28T08:38:57;3.77;;;2.40;;
15708;SDS011;7954;51.914;8.420;2023-05-28T08:41:25;3.20;;;2.50;;
15708;SDS011;7954;51.914;8.420;2023-05-28T08:43:53;6.97;;;2.40;;
15708;SDS011;7954;51.914;8.420;2023-05-28T08:46:21;3.60;;;2.20;;
15708;SDS011;7954;51.914;8.420;2023-05-28T08:48:50;2.93;;;2.33;;
15708;SDS011;7954;51.914;8.420;2023-05-28T08:51:19;3.40;;;2.60;;
15708;SDS011;7954;51.914;8.420;2023-05-28T08:53:50;3.80;;;2.53;;
15708;SDS011;7954;51.914;8.420;2023-05-28T08:56:19;3.33;;;2.10;;
15708;SDS011;7954;51.914;8.420;2023-05-28T08:58:48;3.17;;;2.27;;
15708;SDS011;7954;51.914;8.420;2023-05-28T09:01:16;4.43;;;2.30;;
15708;SDS011;7954;51.914;8.420;2023-05-28T09:03:44;3.63;;;2.30;;
15708;SDS011;7954;51.914;8.420;2023-05-28T09:06:12;2.13;;;1.93;;
15708;SDS011;7954;51.914;8.420;2023-05-28T09:08:40;3.10;;;2.50;;
15708;SDS011;7954;51.914;8.420;2023-05-28T09:11:13;2.60;;;2.33;;
15708;SDS011;7954;51.914;8.420;2023-05-28T09:13:41;2.87;;;2.20;;
15708;SDS011;7954;51.914;8.420;2023-05-28T09:16:10;2.87;;;2.20;;
15708;SDS011;7954;51.914;8.420;2023-05-28T09:18:40;2.33;;;2.10;;
15708;SDS011;7954;51.914;8.420;2023-05-28T09:21:08;2.83;;;2.30;;
15708;SDS011;7954;51.914;8.420;2023-05-28T09:23:37;3.73;;;2.60;;
15708;SDS011;7954;51.914;8.420;2023-05-28T09:26:07;2.93;;;2.37;;
15708;SDS011;7954;51.914;8.420;2023-05-28T09:28:39;4.10;;;2.13;;
15708;SDS011;7954;51.914;8.420;2023-05-28T09:31:10;3.63;;;2.30;;
15708;SDS011;7954;51.914;8.420;2023-05-28T09:33:40;2.80;;;2.20;;
15708;SDS011;7954;51.914;8.420;2023-05-28T09:36:09;3.33;;;2.20;;
15708;SDS011;7954;51.914;8.420;2023-05-28T09:38:37;2.73;;;2.33;;
15708;SDS011;7954;51.914;8.420;2023-05-28T09:41:16;2.87;;;2.03;;
15708;SDS011;7954;51.914;8.420;2023-05-28T09:43:47;3.40;;;2.30;;
15708;SDS011;7954;51.914;8.420;2023-05-28T09:46:27;3.60;;;2.60;;
15708;SDS011;7954;51.914;8.420;2023-05-28T09:48:56;3.80;;;2.40;;
15708;SDS011;7954;51.914;8.420;2023-05-28T09:51:26;2.50;;;2.20;;
15708;SDS011;7954;51.914;8.420;2023-05-28T09:53:56;4.80;;;2.20;;
15708;SDS011;7954;51.914;8.420;2023-05-28T09:56:26;3.63;;;2.53;;
15708;SDS011;7954;51.914;8.420;2023-05-28T09:59:01;4.00;;;2.40;;
15708;SDS011;7954;51.914;8.420;2023-05-28T10:01:30;4.37;;;2.87;;
15708;SDS011;7954;51.914;8.420;2023-05-28T10:04:01;2.40;;;2.20;;
15708;SDS011;7954;51.914;8.420;2023-05-28T10:06:33;3.20;;;2.20;;
15708;SDS011;7954;51.914;8.420;2023-05-28T10:09:03;4.07;;;2.10;;
15708;SDS011;7954;51.914;8.420;2023-05-28T10:11:34;3.83;;;2.90;;
15708;SDS011;7954;51.914;8.420;2023-05-28T10:14:06;3.90;;;2.43;;
15708;SDS011;7954;51.914;8.420;2023-05-28T10:16:35;4.07;;;2.60;;
15708;SDS011;7954;51.914;8.420;2023-05-28T10:19:04;2.47;;;1.97;;
15708;SDS011;7954;51.914;8.420;2023-05-28T10:21:33;3.20;;;2.50;;
15708;SDS011;7954;51.914;8.420;2023-05-28T10:24:01;2.97;;;2.07;;
15708;SDS011;7954;51.914;8.420;2023-05-28T10:26:30;3.70;;;2.20;;
15708;SDS011;7954;51.914;8.420;2023-05-28T10:28:59;3.63;;;2.33;;
15708;SDS011;7954;51.914;8.420;2023-05-28T10:31:28;4.13;;;2.37;;
15708;SDS011;7954;51.914;8.420;2023-05-28T10:33:56;2.93;;;2.20;;
15708;SDS011;7954;51.914;8.420;2023-05-28T10:36:26;3.70;;;2.40;;
15708;SDS011;7954;51.914;8.420;2023-05-28T10:38:57;3.87;;;2.30;;
15708;SDS011;7954;51.914;8.420;2023-05-28T10:41:30;3.43;;;2.50;;
15708;SDS011;7954;51.914;8.420;2023-05-28T10:44:04;2.80;;;2.10;;
15708;SDS011;7954;51.914;8.420;2023-05-28T10:46:37;3.60;;;2.20;;
15708;SDS011;7954;51.914;8.420;2023-05-28T10:49:09;2.77;;;2.33;;
15708;SDS011;7954;51.914;8.420;2023-05-28T10:51:42;3.07;;;2.60;;
15708;SDS011;7954;51.914;8.420;2023-05-28T10:54:24;4.23;;;2.63;;
15708;SDS011;7954;51.914;8.420;2023-05-28T10:57:10;2.80;;;2.50;;
15708;SDS011;7954;51.914;8.420;2023-05-28T10:59:42;4.53;;;2.47;;
15708;SDS011;7954;51.914;8.420;2023-05-28T11:02:12;2.87;;;2.30;;
15708;SDS011;7954;51.914;8.420;2023-05-28T11:04:44;4.60;;;2.67;;
15708;SDS011;7954;51.914;8.420;2023-05-28T11:07:13;3.00;;;2.30;;
15708;SDS011;7954;51.914;8.420;2023-05-28T11:09:41;3.20;;;2.33;;
15708;SDS011;7954;51.914;8.420;2023-05-28T11:12:09;2.97;;;2.53;;
15708;SDS011;7954;51.914;8.420;2023-05-28T11:14:39;3.83;;;2.53;;
15708;SDS011;7954;51.914;8.420;2023-05-28T11:17:08;3.80;;;2.33;;
15708;SDS011;7954;51.914;8.420;2023-05-28T11:19:41;3.37;;;2.50;;
15708;SDS011;7954;51.914;8.420;2023-05-28T11:22:10;4.35;;;2.25;;
15708;SDS011;7954;51.914;8.420;2023-05-28T11:24:52;3.30;;;2.30;;
15708;SDS011;7954;51.914;8.420;2023-05-28T11:27:26;2.97;;;2.50;;
15708;SDS011;7954;51.914;8.420;2023-05-28T11:29:55;5.43;;;3.00;;
15708;SDS011;7954;51.914;8.420;2023-05-28T11:32:24;3.13;;;2.30;;
15708;SDS011;7954;51.914;8.420;2023-05-28T11:34:56;4.43;;;2.53;;
15708;SDS011;7954;51.914;8.420;2023-05-28T11:37:24;2.50;;;2.30;;
15708;SDS011;7954;51.914;8.420;2023-05-28T11:39:55;3.83;;;2.92;;
15708;SDS011;7954;51.914;8.420;2023-05-28T11:42:24;3.00;;;2.43;;
15708;SDS011;7954;51.914;8.420;2023-05-28T11:44:53;2.80;;;2.50;;
15708;SDS011;7954;51.914;8.420;2023-05-28T11:47:21;4.67;;;2.67;;
15708;SDS011;7954;51.914;8.420;2023-05-28T11:49:49;5.33;;;2.37;;
15708;SDS011;7954;51.914;8.420;2023-05-28T11:52:20;3.00;;;2.17;;
15708;SDS011;7954;51.914;8.420;2023-05-28T11:54:52;2.78;;;2.30;;
15708;SDS011;7954;51.914;8.420;2023-05-28T11:57:21;2.50;;;2.30;;
15708;SDS011;7954;51.914;8.420;2023-05-28T11:59:54;3.55;;;2.50;;
15708;SDS011;7954;51.914;8.420;2023-05-28T12:02:23;2.75;;;2.42;;
15708;SDS011;7954;51.914;8.420;2023-05-28T12:04:58;4.00;;;2.38;;
15708;SDS011;7954;51.914;8.420;2023-05-28T12:07:28;2.95;;;2.42;;
15708;SDS011;7954;51.914;8.420;2023-05-28T12:10:01;5.53;;;2.75;;
15708;SDS011;7954;51.914;8.420;2023-05-28T12:12:30;3.33;;;2.40;;
15708;SDS011;7954;51.914;8.420;2023-05-28T12:14:58;3.75;;;2.55;;
15708;SDS011;7954;51.914;8.420;2023-05-28T12:17:28;2.70;;;2.35;;
15708;SDS011;7954;51.914;8.420;2023-05-28T12:20:06;3.03;;;2.45;;
15708;SDS011;7954;51.914;8.420;2023-05-28T12:23:03;3.25;;;2.20;;
15708;SDS011;7954;51.914;8.420;2023-05-28T12:25:46;2.78;;;2.47;;
15708;SDS011;7954;51.914;8.420;2023-05-28T12:28:15;3.80;;;2.50;;
15708;SDS011;7954;51.914;8.420;2023-05-28T12:30:45;3.75;;;2.50;;
15708;SDS011;7954;51.914;8.420;2023-05-28T12:33:15;3.90;;;2.95;;
15708;SDS011;7954;51.914;8.420;2023-05-28T12:35:44;2.50;;;2.25;;
15708;SDS011;7954;51.914;8.420;2023-05-28T12:38:13;2.92;;;2.40;;
15708;SDS011;7954;51.914;8.420;2023-05-28T12:40:41;3.47;;;2.55;;
15708;SDS011;7954;51.914;8.420;2023-05-28T12:43:10;3.25;;;2.30;;
15708;SDS011;7954;51.914;8.420;2023-05-28T12:45:37;5.30;;;2.47;;
15708;SDS011;7954;51.914;8.420;2023-05-28T12:48:05;3.33;;;2.50;;
15708;SDS011;7954;51.914;8.420;2023-05-28T12:50:35;2.70;;;2.33;;
15708;SDS011;7954;51.914;8.420;2023-05-28T12:53:03;2.85;;;2.55;;
15708;SDS011;7954;51.914;8.420;2023-05-28T12:55:33;4.60;;;2.70;;
15708;SDS011;7954;51.914;8.420;2023-05-28T12:58:01;3.13;;;2.50;;
15708;SDS011;7954;51.914;8.420;2023-05-28T13:00:29;3.13;;;2.55;;
15708;SDS011;7954;51.914;8.420;2023-05-28T13:02:57;3.95;;;2.70;;
15708;SDS011;7954;51.914;8.420;2023-05-28T13:05:29;3.22;;;2.65;;
15708;SDS011;7954;51.914;8.420;2023-05-28T13:08:00;3.70;;;2.95;;
15708;SDS011;7954;51.914;8.420;2023-05-28T13:10:28;4.05;;;2.83;;
15708;SDS011;7954;51.914;8.420;2023-05-28T13:12:58;4.35;;;3.00;;
15708;SDS011;7954;51.914;8.420;2023-05-28T13:15:26;3.88;;;3.13;;
15708;SDS011;7954;51.914;8.420;2023-05-28T13:17:54;3.63;;;3.20;;
15708;SDS011;7954;51.914;8.420;2023-05-28T13:20:23;3.13;;;2.78;;
15708;SDS011;7954;51.914;8.420;2023-05-28T13:22:52;6.00;;;2.95;;
15708;SDS011;7954;51.914;8.420;2023-05-28T13:25:19;3.35;;;2.80;;
15708;SDS011;7954;51.914;8.420;2023-05-28T13:27:48;3.67;;;2.95;;
15708;SDS011;7954;51.914;8.420;2023-05-28T13:30:18;3.33;;;3.00;;
15708;SDS011;7954;51.914;8.420;2023-05-28T13:32:46;3.70;;;2.80;;
15708;SDS011;7954;51.914;8.420;2023-05-28T13:35:15;5.15;;;3.50;;
15708;SDS011;7954;51.914;8.420;2023-05-28T13:37:42;3.17;;;2.80;;
15708;SDS011;7954;51.914;8.420;2023-05-28T13:40:11;3.28;;;2.90;;
15708;SDS011;7954;51.914;8.420;2023-05-28T13:42:40;3.42;;;3.13;;
15708;SDS011;7954;51.914;8.420;2023-05-28T13:45:08;2.92;;;2.63;;
15708;SDS011;7954;51.914;8.420;2023-05-28T13:47:38;3.42;;;2.78;;
15708;SDS011;7954;51.914;8.420;2023-05-28T13:50:06;3.22;;;2.95;;
15708;SDS011;7954;51.914;8.420;2023-05-28T13:52:35;3.15;;;2.85;;
15708;SDS011;7954;51.914;8.420;2023-05-28T13:55:03;3.42;;;3.13;;
15708;SDS011;7954;51.914;8.420;2023-05-28T13:57:32;3.78;;;2.90;;
15708;SDS011;7954;51.914;8.420;2023-05-28T14:00:00;3.35;;;3.05;;
15708;SDS011;7954;51.914;8.420;2023-05-28T14:02:33;3.67;;;3.25;;
15708;SDS011;7954;51.914;8.420;2023-05-28T14:05:02;4.00;;;2.88;;
15708;SDS011;7954;51.914;8.420;2023-05-28T14:07:32;3.40;;;2.97;;
15708;SDS011;7954;51.914;8.420;2023-05-28T14:10:00;4.28;;;3.60;;
15708;SDS011;7954;51.914;8.420;2023-05-28T14:12:28;3.63;;;3.33;;
15708;SDS011;7954;51.914;8.420;2023-05-28T14:14:56;4.80;;;3.75;;
15708;SDS011;7954;51.914;8.420;2023-05-28T14:17:24;4.13;;;3.15;;
15708;SDS011;7954;51.914;8.420;2023-05-28T14:19:52;4.28;;;3.90;;
15708;SDS011;7954;51.914;8.420;2023-05-28T14:22:21;3.88;;;3.58;;
15708;SDS011;7954;51.914;8.420;2023-05-28T14:24:49;4.03;;;3.72;;
15708;SDS011;7954;51.914;8.420;2023-05-28T14:27:17;4.22;;;3.90;;
15708;SDS011;7954;51.914;8.420;2023-05-28T14:29:45;4.18;;;3.88;;
15708;SDS011;7954;51.914;8.420;2023-05-28T14:32:12;3.80;;;3.50;;
15708;SDS011;7954;51.914;8.420;2023-05-28T14:34:41;3.80;;;3.47;;
15708;SDS011;7954;51.914;8.420;2023-05-28T14:37:11;4.53;;;4.10;;
15708;SDS011;7954;51.914;8.420;2023-05-28T14:39:40;4.60;;;4.28;;
15708;SDS011;7954;51.914;8.420;2023-05-28T14:42:08;4.70;;;4.32;;
15708;SDS011;7954;51.914;8.420;2023-05-28T14:44:36;4.95;;;4.43;;
15708;SDS011;7954;51.914;8.420;2023-05-28T14:47:04;4.45;;;4.05;;
15708;SDS011;7954;51.914;8.420;2023-05-28T14:49:32;5.00;;;4.60;;
15708;SDS011;7954;51.914;8.420;2023-05-28T14:54:50;4.70;;;4.25;;
15708;SDS011;7954;51.914;8.420;2023-05-28T14:57:18;4.60;;;4.30;;
15708;SDS011;7954;51.914;8.420;2023-05-28T14:59:46;4.63;;;4.25;;
15708;SDS011;7954;51.914;8.420;2023-05-28T15:02:15;4.95;;;4.55;;
15708;SDS011;7954;51.914;8.420;2023-05-28T15:04:44;4.63;;;4.18;;
15708;SDS011;7954;51.914;8.420;2023-05-28T15:07:12;4.28;;;3.97;;
15708;SDS011;7954;51.914;8.420;2023-05-28T15:09:40;4.25;;;3.95;;
15708;SDS011;7954;51.914;8.420;2023-05-28T15:12:10;4.55;;;4.18;;
15708;SDS011;7954;51.914;8.420;2023-05-28T15:14:39;4.75;;;4.30;;